Time;durP1;ratioP1;P1;durP2;ratioP2;P2;SDS_P1;SDS_P2;PMS_P1;PMS_P2;Temp;Humidity;BMP_temperature;BMP_pressure;BME280_temperature;BME280_humidity;BME280_pressure;Samples;Min_cycle;Max_cycle;Signal;HPM_P1;HPM_P2
2023/09/08 00:03:39;;;;;;;16.77;11.93;;;;;;;24.29;100.00;100495.69;20636173;28;20062;-72
2023/09/08 00:14:03;;;;;;;15.45;11.20;;;;;;;24.18;100.00;100482.66;20648843;28;20050;-72
2023/09/08 00:24:28;;;;;;;17.45;12.57;;;;;;;24.10;100.00;100486.63;20658670;28;20061;-72
2023/09/08 00:34:51;;;;;;;16.75;13.23;;;;;;;24.01;100.00;100485.25;20665484;28;20048;-72
2023/09/08 00:45:16;;;;;;;16.13;12.35;;;;;;;24.04;100.00;100487.78;20677105;28;20251;-72
2023/09/08 00:55:40;;;;;;;18.55;13.82;;;;;;;23.93;100.00;100494.63;20650253;28;20081;-72
2023/09/08 01:06:06;;;;;;;18.00;13.05;;;;;;;23.84;100.00;100485.97;20649614;28;20055;-72
2023/09/08 01:16:29;;;;;;;15.50;12.40;;;;;;;23.79;100.00;100489.81;20647248;28;20105;-72
2023/09/08 01:26:53;;;;;;;16.30;12.38;;;;;;;23.75;100.00;100478.31;20658611;28;20497;-72
2023/09/08 01:37:16;;;;;;;19.55;11.48;;;;;;;23.67;100.00;100479.56;20657286;28;20085;-71
2023/09/08 01:47:42;;;;;;;17.33;13.48;;;;;;;23.54;100.00;100471.13;20659729;28;20078;-71
2023/09/08 01:58:05;;;;;;;19.08;13.20;;;;;;;23.52;100.00;100470.31;20658762;28;20058;-71
2023/09/08 02:08:30;;;;;;;19.25;13.63;;;;;;;23.53;100.00;100472.06;20658287;28;20096;-72
2023/09/08 02:18:53;;;;;;;18.13;14.23;;;;;;;23.53;100.00;100484.66;20656732;28;20054;-71
2023/09/08 02:29:18;;;;;;;19.75;12.57;;;;;;;23.42;100.00;100479.69;20643472;28;20078;-71
2023/09/08 02:39:41;;;;;;;22.63;14.05;;;;;;;23.38;100.00;100488.84;20641634;28;20410;-72
2023/09/08 02:50:07;;;;;;;18.85;14.45;;;;;;;23.34;100.00;100487.22;20641920;28;20104;-71
2023/09/08 03:00:31;;;;;;;20.38;13.73;;;;;;;23.25;100.00;100491.16;20640195;28;20057;-72
2023/09/08 03:10:59;;;;;;;18.67;13.35;;;;;;;23.26;100.00;100500.13;20652528;28;20521;-72
2023/09/08 03:21:21;;;;;;;;;;;;;;;23.19;100.00;100509.38;20637785;28;20049;-71
2023/09/08 03:31:46;;;;;;;20.60;13.50;;;;;;;23.06;100.00;100517.06;20638882;28;20380;-71
2023/09/08 03:42:09;;;;;;;19.48;14.75;;;;;;;23.09;100.00;100524.16;20636157;28;20046;-72
2023/09/08 03:52:34;;;;;;;19.58;13.50;;;;;;;23.20;100.00;100535.38;20635280;28;20061;-72
2023/09/08 04:02:56;;;;;;;21.75;14.25;;;;;;;23.38;100.00;100542.72;20647752;28;20084;-72
2023/09/08 04:13:21;;;;;;;18.67;14.02;;;;;;;23.42;100.00;100547.94;20632354;28;20075;-72
2023/09/08 04:23:44;;;;;;;20.90;13.43;;;;;;;23.43;100.00;100535.34;20645521;28;20046;-72
2023/09/08 04:34:09;;;;;;;16.63;13.18;;;;;;;23.73;100.00;100542.19;20647095;28;20058;-72
2023/09/08 04:44:32;;;;;;;16.73;12.23;;;;;;;24.11;100.00;100537.84;20633557;28;20085;-72
2023/09/08 04:54:57;;;;;;;14.38;10.93;;;;;;;24.65;100.00;100532.75;20636386;28;20394;-72
2023/09/08 05:05:21;;;;;;;16.13;10.75;;;;;;;25.25;100.00;100523.63;20634811;28;20057;-72
2023/09/08 05:15:48;;;;;;;14.73;10.48;;;;;;;25.81;100.00;100534.31;20642047;28;20136;-72
2023/09/08 05:26:13;;;;;;;15.02;9.55;;;;;;;26.50;100.00;100539.75;20658951;28;20054;-72
2023/09/08 05:36:40;;;;;;;22.35;11.05;;;;;;;26.72;100.00;100542.16;20645031;28;20058;-72
2023/09/08 05:47:05;;;;;;;19.20;10.05;;;;;;;26.98;100.00;100558.78;20645274;28;20113;-72
2023/09/08 05:57:30;;;;;;;21.58;9.25;;;;;;;27.81;100.00;100560.38;20644332;28;20046;-72
2023/09/08 06:07:53;;;;;;;18.00;9.30;;;;;;;28.01;100.00;100561.91;20644063;28;20069;-71
2023/09/08 06:18:19;;;;;;;13.73;7.80;;;;;;;28.98;100.00;100553.19;20641256;28;20112;-73
2023/09/08 06:28:43;;;;;;;12.95;6.72;;;;;;;29.85;100.00;100537.44;20641697;28;20054;-73
2023/09/08 06:39:09;;;;;;;16.30;6.78;;;;;;;30.54;100.00;100535.41;20648981;28;20054;-73
2023/09/08 06:49:32;;;;;;;12.25;5.72;;;;;;;30.92;100.00;100541.72;20650791;28;20502;-74
2023/09/08 06:59:57;;;;;;;12.02;6.60;;;;;;;31.55;100.00;100540.72;20649566;28;20173;-73
2023/09/08 07:10:21;;;;;;;12.70;6.53;;;;;;;31.72;100.00;100528.53;20650150;28;20062;-73
2023/09/08 07:20:49;;;;;;;16.53;6.87;;;;;;;32.11;100.00;100530.94;20635291;28;20046;-73
2023/09/08 07:31:14;;;;;;;15.38;6.95;;;;;;;32.00;98.37;100531.78;20635917;28;20049;-73
2023/09/08 07:41:41;;;;;;;12.93;5.95;;;;;;;32.54;94.84;100522.13;20584221;28;20077;-74
2023/09/08 07:52:07;;;;;;;10.18;6.25;;;;;;;32.90;86.07;100526.53;20635713;28;20609;-73
2023/09/08 08:02:31;;;;;;;12.83;6.60;;;;;;;33.11;78.58;100524.78;20649318;28;20046;-72
2023/09/08 08:12:54;;;;;;;12.27;5.53;;;;;;;33.11;75.54;100538.47;20649685;28;20043;-73
2023/09/08 08:23:18;;;;;;;11.15;6.07;;;;;;;33.12;77.49;100538.34;20648384;28;20742;-73
2023/09/08 08:33:42;;;;;;;17.50;6.63;;;;;;;33.71;75.22;100546.25;20585191;28;20562;-72
2023/09/08 08:44:08;;;;;;;10.43;5.20;;;;;;;34.13;73.61;100562.78;20656130;28;20042;-73
2023/09/08 08:54:31;;;;;;;16.00;6.18;;;;;;;34.37;73.95;100563.44;20664155;28;20490;-73
2023/09/08 09:04:56;;;;;;;11.35;5.55;;;;;;;33.98;79.06;100549.38;20648388;28;20061;-73
2023/09/08 09:15:30;;;;;;;17.15;6.30;;;;;;;33.81;81.75;100558.16;20654337;28;20057;-72
2023/09/08 09:25:55;;;;;;;15.98;8.18;;;;;;;34.37;80.21;100555.19;20658452;28;20073;-72
2023/09/08 09:36:22;;;;;;;18.27;6.60;;;;;;;33.77;85.07;100556.69;20645776;28;20053;-73
2023/09/08 09:46:48;;;;;;;14.50;6.40;;;;;;;34.51;86.24;100562.22;20656825;28;20073;-72
2023/09/08 09:57:14;;;;;;;13.85;6.05;;;;;;;35.21;78.03;100558.72;20644638;28;20050;-72
2023/09/08 10:07:40;;;;;;;13.18;6.35;;;;;;;34.28;77.34;100577.91;20642896;28;20046;-72
2023/09/08 10:18:06;;;;;;;16.60;7.90;;;;;;;33.67;78.67;100571.25;20655795;28;20059;-72
2023/09/08 10:28:33;;;;;;;16.92;6.13;;;;;;;34.10;81.52;100571.25;20649045;28;20400;-72
2023/09/08 10:39:16;;;;;;;15.38;6.10;;;;;;;34.43;80.95;100573.84;20651488;28;20074;-72
2023/09/08 10:49:42;;;;;;;15.80;6.03;;;;;;;34.71;78.13;100567.72;20572651;28;20873;-73
2023/09/08 11:00:11;;;;;;;14.90;6.95;;;;;;;34.43;75.15;100557.41;20586353;28;20059;-72
2023/09/08 11:10:37;;;;;;;12.38;6.50;;;;;;;34.06;75.54;100558.81;20557623;28;20514;-72
2023/09/08 11:21:01;;;;;;;17.15;6.93;;;;;;;34.13;75.72;100560.91;20570998;28;20519;-72
2023/09/08 11:31:26;;;;;;;19.80;7.07;;;;;;;33.83;76.39;100547.94;20633779;28;20050;-72
2023/09/08 11:41:48;;;;;;;15.27;6.60;;;;;;;33.47;80.58;100559.25;20650317;28;20141;-72
2023/09/08 11:52:14;;;;;;;13.93;6.13;;;;;;;33.42;81.33;100551.38;20653030;28;20380;-72
2023/09/08 12:02:39;;;;;;;19.00;6.32;;;;;;;33.63;81.98;100548.72;20654955;28;20054;-72
2023/09/08 12:13:03;;;;;;;14.50;6.78;;;;;;;33.81;81.78;100541.72;20655573;28;20050;-72
2023/09/08 12:23:26;;;;;;;13.30;6.15;;;;;;;33.78;79.98;100543.88;20669526;28;20129;-73
2023/09/08 12:33:50;;;;;;;12.95;6.30;;;;;;;33.55;79.12;100543.88;20632580;28;20050;-72
2023/09/08 12:44:13;;;;;;;14.88;6.35;;;;;;;33.36;80.09;100543.69;20670095;28;20081;-72
2023/09/08 12:54:37;;;;;;;15.27;6.72;;;;;;;33.28;82.65;100540.69;20670227;28;20100;-72
2023/09/08 13:05:00;;;;;;;17.50;7.07;;;;;;;32.65;88.90;100533.94;20668726;28;20043;-72
2023/09/08 13:15:25;;;;;;;11.85;5.80;;;;;;;32.41;91.09;100525.84;20681040;28;20530;-72
2023/09/08 13:25:48;;;;;;;12.48;6.50;;;;;;;32.20;95.97;100521.19;20645753;28;20050;-72
2023/09/08 13:36:12;;;;;;;13.20;6.32;;;;;;;32.11;98.73;100530.06;20662515;28;20058;-73
2023/09/08 13:46:35;;;;;;;12.40;6.05;;;;;;;31.62;100.00;100533.84;20646914;28;20407;-72
2023/09/08 13:57:03;;;;;;;19.17;8.15;;;;;;;31.70;100.00;100534.16;20652931;28;20137;-72
2023/09/08 14:07:26;;;;;;;14.60;6.72;;;;;;;31.98;97.80;100521.94;20651384;28;20406;-72
2023/09/08 14:17:51;;;;;;;17.23;6.88;;;;;;;31.77;99.57;100520.91;20656813;28;20050;-72
2023/09/08 14:28:13;;;;;;;17.63;7.20;;;;;;;31.67;100.00;100521.59;20641905;28;20379;-72
2023/09/08 14:38:38;;;;;;;16.27;6.53;;;;;;;31.63;100.00;100521.94;20650016;28;20137;-72
2023/09/08 14:49:00;;;;;;;13.73;6.68;;;;;;;31.51;100.00;100523.69;20646834;28;20418;-72
2023/09/08 14:59:25;;;;;;;17.80;7.60;;;;;;;31.44;100.00;100522.41;20649409;28;20141;-72
2023/09/08 15:09:48;;;;;;;14.23;7.30;;;;;;;31.40;100.00;100528.22;20636660;28;20050;-72
2023/09/08 15:20:14;;;;;;;18.45;7.20;;;;;;;31.28;100.00;100532.75;20653418;28;20056;-72
2023/09/08 15:30:39;;;;;;;21.48;7.13;;;;;;;31.06;100.00;100535.28;20639694;28;20475;-72
2023/09/08 15:41:28;;;;;;;13.20;7.47;;;;;;;30.82;100.00;100518.84;20638931;28;20105;-72
2023/09/08 15:51:51;;;;;;;16.20;8.27;;;;;;;30.54;100.00;100533.56;20638851;28;20054;-72
2023/09/08 16:02:15;;;;;;;16.60;8.73;;;;;;;30.26;100.00;100528.31;20651425;28;20064;-71
2023/09/08 16:12:38;;;;;;;15.80;8.73;;;;;;;29.94;100.00;100523.22;20650785;28;20051;-71
2023/09/08 16:23:04;;;;;;;19.42;9.02;;;;;;;29.69;100.00;100528.56;20650528;28;20050;-72
2023/09/08 16:33:27;;;;;;;17.35;8.50;;;;;;;29.43;100.00;100538.47;20585162;28;20093;-71
2023/09/08 16:43:51;;;;;;;18.95;9.15;;;;;;;29.23;100.00;100539.72;20649978;28;20051;-72
2023/09/08 16:54:14;;;;;;;18.23;9.00;;;;;;;29.06;100.00;100548.13;20649960;28;20078;-72
2023/09/08 17:04:43;;;;;;;18.88;9.68;;;;;;;28.89;100.00;100564.63;20654901;28;20108;-72
2023/09/08 17:15:07;;;;;;;20.58;10.38;;;;;;;28.70;100.00;100573.03;20676102;28;20582;-72
2023/09/08 17:25:32;;;;;;;21.02;11.00;;;;;;;28.57;100.00;100580.19;20675609;28;20212;-72
2023/09/08 17:35:55;;;;;;;20.00;10.13;;;;;;;28.35;100.00;100596.97;20660966;28;20054;-72
2023/09/08 17:46:19;;;;;;;17.65;10.90;;;;;;;28.14;100.00;100611.81;20659160;28;20054;-72
2023/09/08 17:56:42;;;;;;;16.27;9.75;;;;;;;27.92;100.00;100612.19;20659339;28;20065;-72
2023/09/08 18:07:06;;;;;;;19.98;10.63;;;;;;;27.77;100.00;100610.34;20643502;28;20058;-72
2023/09/08 18:17:31;;;;;;;21.08;10.10;;;;;;;27.60;100.00;100629.44;20656912;28;20046;-72
2023/09/08 18:27:55;;;;;;;18.55;11.27;;;;;;;27.48;100.00;100633.69;20661504;28;20101;-72
2023/09/08 18:38:18;;;;;;;20.83;10.75;;;;;;;27.38;100.00;100627.03;20661462;28;20410;-72
2023/09/08 18:48:45;;;;;;;20.58;10.55;;;;;;;27.27;100.00;100624.06;20660481;28;20104;-72
2023/09/08 18:59:07;;;;;;;21.77;11.73;;;;;;;27.16;100.00;100638.22;20660567;28;20074;-72
2023/09/08 19:09:32;;;;;;;22.20;11.63;;;;;;;27.03;100.00;100639.84;20659776;28;20046;-72
2023/09/08 19:19:55;;;;;;;18.13;10.85;;;;;;;26.94;100.00;100630.38;20645359;28;20105;-72
2023/09/08 19:30:20;;;;;;;23.63;12.60;;;;;;;26.87;100.00;100636.16;20641202;28;20141;-72
2023/09/08 19:40:43;;;;;;;24.50;12.32;;;;;;;26.82;100.00;100635.53;20649240;28;20046;-72
2023/09/08 19:51:07;;;;;;;19.70;10.90;;;;;;;26.69;100.00;100642.56;20643992;28;20050;-72
2023/09/08 20:01:32;;;;;;;22.38;11.95;;;;;;;26.55;100.00;100635.16;20656704;28;20050;-72
2023/09/08 20:11:56;;;;;;;20.50;12.45;;;;;;;26.44;100.00;100640.28;20638027;28;20093;-72
2023/09/08 20:22:19;;;;;;;25.58;12.43;;;;;;;26.23;100.00;100639.50;20651541;28;20054;-72
2023/09/08 20:32:44;;;;;;;19.23;12.38;;;;;;;26.25;100.00;100643.06;20637760;28;20078;-73
2023/09/08 20:43:06;;;;;;;24.48;12.43;;;;;;;26.26;100.00;100644.78;20647993;28;20050;-72
2023/09/08 20:53:32;;;;;;;19.60;11.63;;;;;;;26.22;100.00;100634.16;20664543;28;20042;-72
2023/09/08 21:03:55;;;;;;;19.15;11.60;;;;;;;26.12;100.00;100626.50;20641623;28;20050;-72
2023/09/08 21:14:20;;;;;;;21.65;12.52;;;;;;;26.08;100.00;100627.63;20631146;28;20410;-72
2023/09/08 21:24:43;;;;;;;20.73;11.23;;;;;;;26.00;100.00;100637.06;20653427;28;20387;-72
2023/09/08 21:35:09;;;;;;;19.98;11.75;;;;;;;25.92;100.00;100631.19;20641755;28;20108;-72
2023/09/08 21:45:32;;;;;;;21.98;12.18;;;;;;;25.73;100.00;100617.72;20658207;28;20053;-72
2023/09/08 21:55:57;;;;;;;23.85;11.15;;;;;;;25.70;100.00;100607.03;20659774;28;20104;-72
2023/09/08 22:06:20;;;;;;;17.75;10.55;;;;;;;25.64;100.00;100608.22;20658247;28;20046;-72
2023/09/08 22:16:44;;;;;;;21.38;11.40;;;;;;;25.57;100.00;100605.84;20643890;28;20046;-72
2023/09/08 22:27:08;;;;;;;25.13;12.70;;;;;;;25.26;100.00;100611.84;20657131;28;20050;-72
2023/09/08 22:37:32;;;;;;;23.33;13.15;;;;;;;25.25;100.00;100610.09;20657386;28;20050;-72
2023/09/08 22:47:55;;;;;;;25.58;11.98;;;;;;;25.12;100.00;100604.41;20642102;28;20112;-72
2023/09/08 22:58:20;;;;;;;19.02;11.52;;;;;;;25.11;100.00;100590.94;20655803;28;20459;-72
2023/09/08 23:08:43;;;;;;;18.95;11.55;;;;;;;24.78;100.00;100578.03;20653290;28;20050;-72
2023/09/08 23:19:08;;;;;;;23.00;11.90;;;;;;;24.84;100.00;100584.97;20653729;28;20053;-72
2023/09/08 23:29:31;;;;;;;19.92;11.77;;;;;;;24.57;100.00;100573.59;20652814;28;20433;-72
2023/09/08 23:39:56;;;;;;;21.25;11.82;;;;;;;24.48;100.00;100569.50;20639099;28;20053;-72
2023/09/08 23:50:19;;;;;;;24.70;12.65;;;;;;;24.36;100.00;100574.56;20652706;28;20049;-72
